OPRK

Shaikh Zaid Airport

Rahim Yar Khan, Pakistan
TAF OPRK 210400Z 2106/2124 13010KT 4000 FU SCT120 TX43/2110Z
Issued Valid From Valid To
Jul-21 @ 04:00 UTC
(6 hours ago)
Jul-21 @ 06:00 UTC
(4 hours ago)
Jul-22 @ 00:00 UTC
(in 14 hours)
Jul-21 @ 06:00 to Jul-22 @ 00:00
TAF OPRK 210400Z 2106/2124 13010KT 4000 FU SCT120 TX43/2110Z
Wind Visibility Clouds Conditions
130° at 10 knots 4,007 meters
  • Scattered at 12,000' AGL
  • Smoke
TAF OPRK 210400Z 2106/2124 13010KT 4000 FU SCT120 TX43/2110Z
Issued Jul-21 @ 04:00 UTC
(6 hours ago)
Valid From Jul-21 @ 06:00 UTC
(4 hours ago)
Valid To Jul-22 @ 00:00 UTC
(in 14 hours)
Jul-21 @ 06:00 - Jul-22 @ 00:00
Wind Visibility
130° at 10 knots 4,007 meters
Clouds
  • Scattered at 12,000' AGL
Conditions
  • Smoke